Time;durP1;ratioP1;P1;durP2;ratioP2;P2;SDS_P1;SDS_P2;PMS_P1;PMS_P2;Temp;Humidity;BMP_temperature;BMP_pressure;BME280_temperature;BME280_humidity;BME280_pressure;Samples;Min_cycle;Max_cycle;Signal;HPM_P1;HPM_P2
2024/02/19 00:01:05;;;;;;;20.73;8.53;;;10.40;99.90;;;;;;5056164;28;20442;-55
2024/02/19 00:03:32;;;;;;;18.60;8.87;;;10.30;99.90;;;;;;5056165;28;20453;-56
2024/02/19 00:05:59;;;;;;;9.70;7.90;;;10.30;99.90;;;;;;5055981;28;20453;-56
2024/02/19 00:08:25;;;;;;;13.60;9.20;;;10.30;99.90;;;;;;5055880;28;20488;-56
2024/02/19 00:10:52;;;;;;;20.07;8.70;;;10.30;99.90;;;;;;5055691;28;20905;-56
2024/02/19 00:13:19;;;;;;;11.73;7.77;;;10.20;99.90;;;;;;5055660;28;20446;-56
2024/02/19 00:15:47;;;;;;;15.83;7.63;;;10.20;99.90;;;;;;5055762;28;20446;-56
2024/02/19 00:18:14;;;;;;;18.10;7.33;;;10.30;99.90;;;;;;5055382;28;20438;-56
2024/02/19 00:20:41;;;;;;;14.50;8.10;;;10.30;99.90;;;;;;5054916;28;20461;-56
2024/02/19 00:23:08;;;;;;;18.20;8.20;;;10.30;99.90;;;;;;5055399;28;20876;-56
2024/02/19 00:25:35;;;;;;;13.80;7.70;;;10.30;99.90;;;;;;5055269;28;20460;-56
2024/02/19 00:28:02;;;;;;;15.27;7.23;;;10.30;99.90;;;;;;5054886;28;20481;-56
2024/02/19 00:30:29;;;;;;;12.53;7.00;;;10.30;99.90;;;;;;5055257;28;20469;-56
2024/02/19 00:32:58;;;;;;;24.73;6.67;;;10.30;99.90;;;;;;5055174;28;20524;-56
2024/02/19 00:35:26;;;;;;;16.03;5.90;;;10.20;99.90;;;;;;5055126;28;20459;-56
2024/02/19 00:37:52;;;;;;;13.20;6.53;;;10.30;99.90;;;;;;5055006;28;20887;-56
2024/02/19 00:40:19;;;;;;;9.93;5.80;;;10.30;99.90;;;;;;5054934;28;20472;-56
2024/02/19 00:42:46;;;;;;;15.50;6.27;;;10.40;99.90;;;;;;5054946;28;20816;-56
2024/02/19 00:45:13;;;;;;;12.70;4.87;;;10.30;99.90;;;;;;5054980;28;20485;-56
2024/02/19 00:47:40;;;;;;;15.23;5.67;;;10.40;99.90;;;;;;5054839;28;20485;-56
2024/02/19 00:50:09;;;;;;;14.23;4.40;;;10.40;99.90;;;;;;5054415;28;20472;-56
2024/02/19 00:52:38;;;;;;;19.20;6.33;;;10.40;99.90;;;;;;5054660;28;20448;-56
2024/02/19 00:55:06;;;;;;;23.63;5.70;;;10.40;99.90;;;;;;5053235;28;21021;-55
2024/02/19 00:57:32;;;;;;;22.30;6.40;;;10.30;99.90;;;;;;5053998;28;20493;-56
2024/02/19 00:59:59;;;;;;;12.20;6.10;;;10.30;99.90;;;;;;5054065;28;20842;-56
2024/02/19 01:02:26;;;;;;;19.83;6.10;;;10.30;99.90;;;;;;5054125;28;20491;-56
2024/02/19 01:04:53;;;;;;;13.53;5.70;;;10.30;99.90;;;;;;5054358;28;20442;-56
2024/02/19 01:07:21;;;;;;;13.40;5.07;;;10.30;99.90;;;;;;5055732;28;20442;-55
2024/02/19 01:09:48;;;;;;;15.30;5.33;;;10.30;99.90;;;;;;5054270;28;20470;-55
2024/02/19 01:12:15;;;;;;;13.27;5.67;;;10.30;99.90;;;;;;5054433;28;20442;-56
2024/02/19 01:14:42;;;;;;;13.67;5.40;;;10.30;99.90;;;;;;5054277;28;20455;-55
2024/02/19 01:17:09;;;;;;;14.17;6.10;;;10.40;99.90;;;;;;5054187;28;20849;-57
2024/02/19 01:19:38;;;;;;;23.10;7.17;;;10.30;99.90;;;;;;5053834;28;20549;-56
2024/02/19 01:22:05;;;;;;;20.00;5.37;;;10.40;99.90;;;;;;5054257;28;20457;-56
2024/02/19 01:24:33;;;;;;;19.73;5.50;;;10.40;99.90;;;;;;5053792;28;20450;-56
2024/02/19 01:27:00;;;;;;;15.23;4.70;;;10.40;99.90;;;;;;5054116;28;20520;-57
2024/02/19 01:29:27;;;;;;;11.23;5.23;;;10.30;99.90;;;;;;5053675;28;20859;-57
2024/02/19 01:31:54;;;;;;;12.90;4.80;;;10.40;99.90;;;;;;5054131;28;20445;-56
2024/02/19 01:34:21;;;;;;;11.60;4.70;;;10.40;99.90;;;;;;5054102;28;20453;-56
2024/02/19 01:36:48;;;;;;;15.03;5.40;;;10.40;99.90;;;;;;5053926;28;20539;-56
2024/02/19 01:39:16;;;;;;;9.60;5.40;;;10.40;99.90;;;;;;5053930;28;20457;-56
2024/02/19 01:41:44;;;;;;;12.10;4.70;;;10.50;99.90;;;;;;5053750;28;20469;-57
2024/02/19 01:44:11;;;;;;;15.73;5.00;;;10.50;99.90;;;;;;5053813;28;20438;-57
2024/02/19 01:46:40;;;;;;;12.63;5.10;;;10.50;99.90;;;;;;5053825;28;20446;-56
2024/02/19 01:49:09;;;;;;;11.63;5.33;;;10.50;99.90;;;;;;5053600;28;20496;-55
2024/02/19 01:51:37;;;;;;;12.60;4.83;;;10.60;99.90;;;;;;5053695;28;20532;-56
2024/02/19 01:54:05;;;;;;;14.87;4.70;;;10.60;99.90;;;;;;5053293;28;20457;-56
2024/02/19 01:56:33;;;;;;;16.83;4.80;;;10.60;99.90;;;;;;5053697;28;20449;-56
2024/02/19 01:59:03;;;;;;;11.43;4.77;;;10.60;99.90;;;;;;5053576;28;20544;-56
2024/02/19 02:01:31;;;;;;;10.93;4.80;;;10.60;99.90;;;;;;5053587;28;20445;-56
2024/02/19 02:03:58;;;;;;;14.70;5.33;;;10.60;99.90;;;;;;5053218;28;20456;-56
2024/02/19 02:06:25;;;;;;;13.10;5.20;;;10.60;99.90;;;;;;5052905;28;20441;-56
2024/02/19 02:08:52;;;;;;;11.40;4.70;;;10.60;99.90;;;;;;5053014;28;20995;-56
2024/02/19 02:11:19;;;;;;;9.17;4.70;;;10.60;99.90;;;;;;5053855;28;20844;-56
2024/02/19 02:13:46;;;;;;;19.40;5.60;;;10.60;99.90;;;;;;5053792;28;20448;-56
2024/02/19 02:16:25;;;;;;;18.33;4.50;;;10.60;99.90;;;;;;5053036;28;20453;-56
2024/02/19 02:18:51;;;;;;;15.53;4.93;;;10.50;99.90;;;;;;5053723;28;20417;-56
2024/02/19 02:21:18;;;;;;;17.67;3.90;;;10.50;99.90;;;;;;5053496;28;20437;-56
2024/02/19 02:23:45;;;;;;;15.20;5.20;;;10.50;99.90;;;;;;5053039;28;20826;-56
2024/02/19 02:26:12;;;;;;;11.33;4.63;;;10.50;99.90;;;;;;5053500;28;20936;-56
2024/02/19 02:28:42;;;;;;;16.40;5.03;;;10.50;99.90;;;;;;5053339;28;20484;-56
2024/02/19 02:31:09;;;;;;;20.87;5.17;;;10.50;99.90;;;;;;5053622;28;20532;-56
2024/02/19 02:33:35;;;;;;;8.67;3.73;;;10.50;99.90;;;;;;5053351;28;20973;-56
2024/02/19 02:36:03;;;;;;;12.30;5.97;;;10.50;99.90;;;;;;5053470;28;20467;-56
2024/02/19 02:38:30;;;;;;;11.17;4.50;;;10.50;99.90;;;;;;5053311;28;20443;-55
2024/02/19 02:40:57;;;;;;;20.07;5.33;;;10.40;99.90;;;;;;5053303;28;20467;-55
2024/02/19 02:43:23;;;;;;;15.47;4.70;;;10.40;99.90;;;;;;5053230;28;20617;-55
2024/02/19 02:45:51;;;;;;;14.37;4.37;;;10.30;99.90;;;;;;5053388;28;20820;-55
2024/02/19 02:48:19;;;;;;;17.87;4.60;;;10.30;99.90;;;;;;5053050;28;20493;-54
2024/02/19 02:50:46;;;;;;;10.17;3.90;;;10.30;99.90;;;;;;5053395;28;20461;-55
2024/02/19 02:53:12;;;;;;;13.50;4.53;;;10.30;99.90;;;;;;5053243;28;20535;-55
2024/02/19 02:55:39;;;;;;;18.27;4.40;;;10.30;99.90;;;;;;5053466;28;20798;-55
2024/02/19 02:58:06;;;;;;;17.20;4.10;;;10.30;99.90;;;;;;5053347;28;20446;-55
2024/02/19 03:00:33;;;;;;;12.10;3.70;;;10.30;99.90;;;;;;5053052;28;20476;-56
2024/02/19 03:03:01;;;;;;;17.40;4.03;;;10.30;99.90;;;;;;5053290;28;20443;-56
2024/02/19 03:05:28;;;;;;;14.40;4.30;;;10.30;99.90;;;;;;5053776;28;20462;-55
2024/02/19 03:07:55;;;;;;;15.33;3.90;;;10.30;99.90;;;;;;5053677;28;20448;-56
2024/02/19 03:10:22;;;;;;;13.77;3.77;;;10.30;99.90;;;;;;5053377;28;20995;-56
2024/02/19 03:12:49;;;;;;;9.60;3.30;;;10.40;99.90;;;;;;5053023;28;20932;-55
2024/02/19 03:15:15;;;;;;;10.13;3.20;;;10.40;99.90;;;;;;5053419;28;20467;-56
2024/02/19 03:17:42;;;;;;;12.80;4.20;;;10.50;99.90;;;;;;5054648;28;20456;-55
2024/02/19 03:20:13;;;;;;;21.90;4.70;;;10.50;99.90;;;;;;5057139;28;20469;-55
2024/02/19 03:22:40;;;;;;;16.30;5.23;;;10.50;99.90;;;;;;5057208;28;20479;-55
2024/02/19 03:25:07;;;;;;;13.70;4.57;;;10.40;99.90;;;;;;5057986;28;20462;-55
2024/02/19 03:27:35;;;;;;;15.60;5.33;;;10.40;99.90;;;;;;5057539;28;20864;-55
2024/02/19 03:30:02;;;;;;;12.13;4.20;;;10.40;99.90;;;;;;5057309;28;20485;-55
2024/02/19 03:32:28;;;;;;;15.47;5.40;;;10.40;99.90;;;;;;5057377;28;20939;-55
2024/02/19 03:34:56;;;;;;;15.17;4.47;;;10.40;99.90;;;;;;5057630;28;20447;-55
2024/02/19 03:37:25;;;;;;;12.40;4.50;;;10.40;99.90;;;;;;5057296;28;20858;-55
2024/02/19 03:39:51;;;;;;;19.93;4.90;;;10.30;99.90;;;;;;5056790;28;20874;-54
2024/02/19 03:42:19;;;;;;;19.03;4.53;;;10.30;99.90;;;;;;5056608;28;20445;-54
2024/02/19 03:44:46;;;;;;;15.00;4.30;;;10.30;99.90;;;;;;5057270;28;20456;-55
2024/02/19 03:47:13;;;;;;;14.10;4.70;;;10.20;99.90;;;;;;5057225;28;20446;-55
2024/02/19 03:49:40;;;;;;;16.47;5.20;;;10.20;99.90;;;;;;5056645;28;20485;-55
2024/02/19 03:52:07;;;;;;;13.53;5.33;;;10.30;99.90;;;;;;5057064;28;20817;-55
2024/02/19 03:54:35;;;;;;;18.10;6.27;;;10.20;99.90;;;;;;5056876;28;20831;-55
2024/02/19 03:57:02;;;;;;;19.30;5.60;;;10.20;99.90;;;;;;5057622;28;20456;-55
2024/02/19 03:59:28;;;;;;;15.50;5.97;;;10.20;99.90;;;;;;5057643;28;20544;-55
2024/02/19 04:01:55;;;;;;;16.20;4.70;;;10.20;99.90;;;;;;5057921;28;20452;-55
2024/02/19 04:04:22;;;;;;;17.03;6.70;;;10.20;99.90;;;;;;5057895;28;20445;-56
2024/02/19 04:06:50;;;;;;;10.67;4.47;;;10.20;99.90;;;;;;5058222;28;20445;-55
2024/02/19 04:09:17;;;;;;;15.50;4.97;;;10.30;99.90;;;;;;5055591;28;20486;-55
2024/02/19 04:11:45;;;;;;;12.50;4.23;;;10.30;99.90;;;;;;5055982;28;20448;-56
2024/02/19 04:14:12;;;;;;;15.10;4.50;;;10.30;99.90;;;;;;5055306;28;20948;-55
2024/02/19 04:16:39;;;;;;;16.20;5.07;;;10.30;99.90;;;;;;5055494;28;20438;-55
2024/02/19 04:19:05;;;;;;;11.73;4.33;;;10.30;99.90;;;;;;5056015;28;20457;-55
2024/02/19 04:21:32;;;;;;;15.77;3.30;;;10.30;99.90;;;;;;5055431;28;20445;-55
2024/02/19 04:23:59;;;;;;;13.37;4.10;;;10.30;99.90;;;;;;5054908;28;20456;-55
2024/02/19 04:26:26;;;;;;;18.80;4.07;;;10.30;99.90;;;;;;5055269;28;20441;-55
2024/02/19 04:28:56;;;;;;;12.87;3.20;;;10.30;99.90;;;;;;5054294;28;20477;-55
2024/02/19 04:31:22;;;;;;;12.07;2.77;;;10.30;99.90;;;;;;5056493;28;20433;-55
2024/02/19 04:33:49;;;;;;;10.43;2.83;;;10.20;99.90;;;;;;5055325;28;20441;-55
2024/02/19 04:36:16;;;;;;;13.13;3.63;;;10.20;99.90;;;;;;5055152;28;20448;-55
2024/02/19 04:38:43;;;;;;;6.77;2.57;;;10.20;99.90;;;;;;5054817;28;20935;-55
2024/02/19 04:41:10;;;;;;;17.80;2.73;;;10.20;99.90;;;;;;5055168;28;20525;-55
2024/02/19 04:43:36;;;;;;;13.40;3.67;;;10.20;99.90;;;;;;5054731;28;20536;-55
2024/02/19 04:46:05;;;;;;;10.20;3.30;;;10.20;99.90;;;;;;5055040;28;20442;-55
2024/02/19 04:48:35;;;;;;;12.00;3.07;;;10.20;99.90;;;;;;5054808;28;20446;-55
2024/02/19 04:51:02;;;;;;;15.30;3.10;;;10.20;99.90;;;;;;5054482;28;20441;-55
2024/02/19 04:53:29;;;;;;;10.80;3.77;;;10.20;99.90;;;;;;5054827;28;20834;-55
2024/02/19 04:55:56;;;;;;;9.83;2.17;;;10.20;99.90;;;;;;5055116;28;20446;-55
2024/02/19 04:58:22;;;;;;;12.00;2.50;;;10.10;99.90;;;;;;5054495;28;20548;-55
2024/02/19 05:00:50;;;;;;;15.53;2.83;;;10.10;99.90;;;;;;5054330;28;20458;-55
2024/02/19 05:03:18;;;;;;;12.43;2.77;;;10.10;99.90;;;;;;5054772;28;20952;-55
2024/02/19 05:05:45;;;;;;;6.67;2.30;;;10.20;99.90;;;;;;5054394;28;20450;-54
2024/02/19 05:08:11;;;;;;;11.27;2.70;;;10.20;99.90;;;;;;5054408;28;20467;-55
2024/02/19 05:10:38;;;;;;;10.40;2.97;;;10.20;99.90;;;;;;5054189;28;20493;-55
2024/02/19 05:13:05;;;;;;;16.27;2.90;;;10.20;99.90;;;;;;5054367;28;20446;-55
2024/02/19 05:15:32;;;;;;;8.90;2.63;;;10.20;99.90;;;;;;5054254;28;20818;-55
2024/02/19 05:17:59;;;;;;;8.20;2.73;;;10.20;99.90;;;;;;5054321;28;20445;-55
2024/02/19 05:20:27;;;;;;;8.40;1.90;;;10.20;99.90;;;;;;5053885;28;20461;-55
2024/02/19 05:22:54;;;;;;;6.73;2.13;;;10.20;99.90;;;;;;5053908;28;20449;-55
2024/02/19 05:25:21;;;;;;;17.00;3.23;;;10.20;99.90;;;;;;5053889;28;20818;-55
2024/02/19 05:27:47;;;;;;;9.33;2.50;;;10.20;99.90;;;;;;5054098;28;20836;-55
2024/02/19 05:30:15;;;;;;;12.50;2.10;;;10.20;99.90;;;;;;5054131;28;20493;-55
2024/02/19 05:32:42;;;;;;;9.60;2.70;;;10.30;99.90;;;;;;5054400;28;20537;-55
2024/02/19 05:35:09;;;;;;;7.47;2.13;;;10.30;99.90;;;;;;5053809;28;20944;-55
2024/02/19 05:37:37;;;;;;;11.70;2.40;;;10.30;99.90;;;;;;5053921;28;20456;-55
2024/02/19 05:40:05;;;;;;;11.77;3.03;;;10.30;99.90;;;;;;5053747;28;20549;-55
2024/02/19 05:42:32;;;;;;;10.20;2.53;;;10.30;99.90;;;;;;5053808;28;20449;-55
2024/02/19 05:44:59;;;;;;;10.90;2.53;;;10.30;99.90;;;;;;5053781;28;20454;-55
2024/02/19 05:47:29;;;;;;;19.60;3.00;;;10.30;99.90;;;;;;5053756;28;20468;-55
2024/02/19 05:49:55;;;;;;;6.03;2.20;;;10.30;99.90;;;;;;5053491;28;20481;-55
2024/02/19 05:52:22;;;;;;;9.37;2.80;;;10.30;99.90;;;;;;5053311;28;20456;-55
2024/02/19 05:54:50;;;;;;;10.63;2.47;;;10.30;99.90;;;;;;5053292;28;20846;-55
2024/02/19 05:57:17;;;;;;;8.87;2.80;;;10.30;99.90;;;;;;5053473;28;20449;-55
2024/02/19 05:59:44;;;;;;;8.50;2.97;;;10.30;99.90;;;;;;5053440;28;20461;-55
2024/02/19 06:02:11;;;;;;;8.00;2.67;;;10.30;99.90;;;;;;5053469;28;20449;-55
2024/02/19 06:04:38;;;;;;;10.33;2.23;;;10.40;99.90;;;;;;5053117;28;20445;-55
2024/02/19 06:07:05;;;;;;;10.60;2.40;;;10.40;99.90;;;;;;5053445;28;20442;-54
2024/02/19 06:09:32;;;;;;;8.60;2.37;;;10.40;99.90;;;;;;5053165;28;20577;-55
2024/02/19 06:12:00;;;;;;;11.67;2.77;;;10.40;99.90;;;;;;5053585;28;20437;-55
2024/02/19 06:14:27;;;;;;;12.20;3.40;;;10.40;99.90;;;;;;5053354;28;20453;-55
2024/02/19 06:16:53;;;;;;;15.97;3.60;;;10.40;99.90;;;;;;5053391;28;20478;-55
2024/02/19 06:19:20;;;;;;;13.33;3.50;;;10.40;99.90;;;;;;5053323;28;20835;-55
2024/02/19 06:21:47;;;;;;;11.40;3.13;;;10.40;99.90;;;;;;5054219;28;20441;-54
2024/02/19 06:24:14;;;;;;;16.00;4.10;;;10.40;99.90;;;;;;5053880;28;20448;-55
2024/02/19 06:26:40;;;;;;;8.43;3.30;;;10.40;99.90;;;;;;5053822;28;20442;-55
2024/02/19 06:29:10;;;;;;;11.93;2.93;;;10.40;99.90;;;;;;5053078;28;20465;-55
2024/02/19 06:31:37;;;;;;;17.30;3.57;;;10.50;99.90;;;;;;5053846;28;20449;-55
2024/02/19 06:34:04;;;;;;;13.50;2.97;;;10.40;99.90;;;;;;5052944;28;20452;-55
2024/02/19 06:36:31;;;;;;;9.43;3.00;;;10.40;99.90;;;;;;5053088;28;20445;-55
2024/02/19 06:38:58;;;;;;;9.63;2.93;;;10.40;99.90;;;;;;5053160;28;20465;-55
2024/02/19 06:41:24;;;;;;;17.03;3.70;;;10.40;99.90;;;;;;5053236;28;20445;-55
2024/02/19 06:43:51;;;;;;;9.67;2.90;;;10.40;99.90;;;;;;5052953;28;20485;-55
2024/02/19 06:46:20;;;;;;;11.73;3.30;;;10.40;99.90;;;;;;5052895;28;20448;-55
2024/02/19 06:48:47;;;;;;;11.23;4.07;;;10.40;99.90;;;;;;5052915;28;20441;-55
2024/02/19 06:51:14;;;;;;;11.87;3.73;;;10.40;99.90;;;;;;5052616;28;21060;-55
2024/02/19 06:53:41;;;;;;;14.00;3.80;;;10.40;99.90;;;;;;5055910;28;20457;-54
2024/02/19 06:56:08;;;;;;;11.80;3.43;;;10.40;99.90;;;;;;5057124;28;20455;-55
2024/02/19 06:58:35;;;;;;;12.00;3.23;;;10.30;99.90;;;;;;5057023;28;20449;-55
2024/02/19 07:01:04;;;;;;;16.20;2.60;;;10.30;99.90;;;;;;5056811;28;20468;-55
2024/02/19 07:03:32;;;;;;;12.87;3.20;;;10.40;99.90;;;;;;5056519;28;20450;-55
2024/02/19 07:05:59;;;;;;;11.27;3.70;;;10.40;99.90;;;;;;5057095;28;20442;-55
2024/02/19 07:08:26;;;;;;;12.00;3.90;;;10.40;99.90;;;;;;5056733;28;20445;-55
2024/02/19 07:10:53;;;;;;;14.30;3.47;;;10.50;99.90;;;;;;5056185;28;20489;-55
2024/02/19 07:13:19;;;;;;;14.73;4.03;;;10.50;99.90;;;;;;5056656;28;20556;-55
2024/02/19 07:15:46;;;;;;;14.93;3.13;;;10.50;99.90;;;;;;5056546;28;20445;-55
2024/02/19 07:18:13;;;;;;;7.77;3.50;;;10.60;99.90;;;;;;5056563;28;20447;-55
2024/02/19 07:20:41;;;;;;;15.90;4.10;;;10.60;99.90;;;;;;5056098;28;20897;-55
2024/02/19 07:23:08;;;;;;;12.27;4.07;;;10.60;99.90;;;;;;5056391;28;20441;-55
2024/02/19 07:25:35;;;;;;;10.10;4.20;;;10.60;99.90;;;;;;5057026;28;20942;-54
2024/02/19 07:28:02;;;;;;;13.90;4.67;;;10.60;99.90;;;;;;5058308;28;20935;-54
2024/02/19 07:30:28;;;;;;;14.60;4.20;;;10.60;99.90;;;;;;5062679;28;20485;-54
2024/02/19 07:32:55;;;;;;;8.43;4.17;;;10.60;99.90;;;;;;5056155;28;20444;-55
2024/02/19 07:35:22;;;;;;;9.10;4.30;;;10.60;99.90;;;;;;5060227;28;20445;-54
2024/02/19 07:37:50;;;;;;;11.10;4.90;;;10.60;99.90;;;;;;5055971;28;20796;-55
2024/02/19 07:40:17;;;;;;;15.70;5.30;;;10.60;99.90;;;;;;5056046;28;20995;-55
2024/02/19 07:42:44;;;;;;;10.93;5.00;;;10.60;99.90;;;;;;5055795;28;20939;-55
2024/02/19 07:45:10;;;;;;;9.83;4.03;;;10.70;99.90;;;;;;5056056;28;20541;-54
2024/02/19 07:47:37;;;;;;;10.53;4.37;;;10.70;99.90;;;;;;5055646;28;20452;-55
2024/02/19 07:50:05;;;;;;;16.07;5.50;;;10.60;99.90;;;;;;5055409;28;20520;-55
2024/02/19 07:52:32;;;;;;;20.73;6.00;;;10.60;99.90;;;;;;5055755;28;20460;-54
2024/02/19 07:55:00;;;;;;;11.93;5.00;;;10.70;99.90;;;;;;5055873;28;20457;-55
2024/02/19 07:57:27;;;;;;;14.70;4.77;;;10.70;99.90;;;;;;5055927;28;20875;-55
2024/02/19 07:59:54;;;;;;;11.80;3.97;;;10.70;99.90;;;;;;5055726;28;20553;-55
2024/02/19 08:02:21;;;;;;;16.53;5.87;;;10.80;99.90;;;;;;5055865;28;20536;-55
2024/02/19 08:04:47;;;;;;;22.37;5.43;;;10.80;99.90;;;;;;5054595;28;20476;-55
2024/02/19 08:07:14;;;;;;;13.67;5.07;;;10.80;99.90;;;;;;5055667;28;20448;-54
2024/02/19 08:09:41;;;;;;;16.40;4.60;;;10.90;99.90;;;;;;5055736;28;20470;-55
2024/02/19 08:12:09;;;;;;;16.13;5.30;;;10.90;99.90;;;;;;5055208;28;20448;-55
2024/02/19 08:14:36;;;;;;;16.00;5.60;;;11.00;99.90;;;;;;5055064;28;20973;-54
2024/02/19 08:17:04;;;;;;;14.87;4.83;;;11.00;99.90;;;;;;5055566;28;20445;-55
2024/02/19 08:19:31;;;;;;;17.47;5.20;;;11.00;99.90;;;;;;5055496;28;20842;-55
2024/02/19 08:21:58;;;;;;;12.07;4.90;;;11.00;99.90;;;;;;5055430;28;20480;-55
2024/02/19 08:24:25;;;;;;;16.43;5.10;;;11.00;99.90;;;;;;5055368;28;20441;-54
2024/02/19 08:26:52;;;;;;;15.90;5.67;;;11.10;99.90;;;;;;5055302;28;20446;-55
2024/02/19 08:29:20;;;;;;;10.63;4.77;;;11.10;99.90;;;;;;5055181;28;20466;-55
2024/02/19 08:31:47;;;;;;;15.93;5.57;;;11.20;99.90;;;;;;5059450;28;20530;-55
2024/02/19 08:34:14;;;;;;;18.40;6.63;;;11.20;99.90;;;;;;5070540;28;20437;-54
2024/02/19 08:36:41;;;;;;;16.47;6.57;;;11.20;99.90;;;;;;5055191;28;20839;-55
2024/02/19 08:39:08;;;;;;;20.93;6.70;;;11.20;99.90;;;;;;5054971;28;20834;-55
2024/02/19 08:41:36;;;;;;;19.73;6.50;;;11.30;99.90;;;;;;5054606;28;20449;-54
2024/02/19 08:44:02;;;;;;;12.70;5.80;;;11.30;99.90;;;;;;5054514;28;20447;-54
2024/02/19 08:46:30;;;;;;;15.40;6.07;;;11.30;99.90;;;;;;5054863;28;20880;-55
2024/02/19 08:48:57;;;;;;;16.20;6.70;;;11.40;99.90;;;;;;5054748;28;20442;-55
2024/02/19 08:51:24;;;;;;;25.10;7.37;;;11.40;99.90;;;;;;5054843;28;20481;-55
2024/02/19 08:53:51;;;;;;;15.13;5.53;;;11.40;99.90;;;;;;5054441;28;20457;-55
2024/02/19 08:56:17;;;;;;;11.93;5.40;;;11.50;99.90;;;;;;5055514;28;20559;-55
2024/02/19 08:58:44;;;;;;;11.83;5.87;;;11.50;99.90;;;;;;5054555;28;20814;-55
2024/02/19 09:01:13;;;;;;;13.90;7.23;;;11.50;99.90;;;;;;5054634;28;20442;-55
2024/02/19 09:03:41;;;;;;;24.33;8.80;;;11.50;99.90;;;;;;5054533;28;20477;-55
2024/02/19 09:06:08;;;;;;;17.40;6.30;;;11.50;99.90;;;;;;5054451;28;20446;-55
2024/02/19 09:08:35;;;;;;;16.33;6.33;;;11.60;99.90;;;;;;5054508;28;20446;-55
2024/02/19 09:11:02;;;;;;;20.80;7.40;;;11.60;99.90;;;;;;5054109;28;20535;-55
2024/02/19 09:13:29;;;;;;;21.57;6.73;;;11.70;99.90;;;;;;5054018;28;20936;-55
2024/02/19 09:15:56;;;;;;;19.40;6.87;;;11.70;99.90;;;;;;5054039;28;20437;-55
2024/02/19 09:18:23;;;;;;;15.90;7.03;;;11.80;99.90;;;;;;5054024;28;20448;-55
2024/02/19 09:20:51;;;;;;;16.43;6.63;;;11.80;99.90;;;;;;5053922;28;20979;-55
2024/02/19 09:23:18;;;;;;;19.90;6.43;;;11.90;99.90;;;;;;5054342;28;20825;-55
2024/02/19 09:25:44;;;;;;;15.40;6.90;;;11.90;99.90;;;;;;5054346;28;20452;-55
2024/02/19 09:28:11;;;;;;;14.53;7.43;;;12.00;99.90;;;;;;5054166;28;20442;-55
2024/02/19 09:30:38;;;;;;;17.27;5.83;;;12.10;99.90;;;;;;5053891;28;20489;-55
2024/02/19 09:33:06;;;;;;;14.17;7.13;;;12.10;99.90;;;;;;5054539;28;20446;-55
2024/02/19 09:35:32;;;;;;;16.83;7.40;;;12.30;99.90;;;;;;5054494;28;20492;-55
2024/02/19 09:38:00;;;;;;;14.00;7.27;;;12.30;99.90;;;;;;5054324;28;20441;-55
2024/02/19 09:40:32;;;;;;;15.00;6.97;;;12.40;99.90;;;;;;5053986;28;20470;-55
2024/02/19 09:43:00;;;;;;;10.90;6.67;;;12.60;99.90;;;;;;5053978;28;20436;-55
2024/02/19 09:45:27;;;;;;;20.60;6.87;;;12.60;99.90;;;;;;5054009;28;20446;-55
2024/02/19 09:48:00;;;;;;;10.70;6.63;;;12.70;99.90;;;;;;5053826;28;20481;-55
2024/02/19 09:50:31;;;;;;;18.37;9.27;;;12.60;99.90;;;;;;5053838;28;20489;-54
2024/02/19 09:53:08;;;;;;;23.83;8.07;;;12.60;99.90;;;;;;5053570;28;20430;-55
2024/02/19 09:55:35;;;;;;;13.40;8.57;;;12.60;99.90;;;;;;5053923;28;20432;-55
2024/02/19 09:58:02;;;;;;;12.10;7.30;;;12.70;99.90;;;;;;5053744;28;20442;-55
2024/02/19 10:00:30;;;;;;;12.57;7.43;;;12.70;99.90;;;;;;5053319;28;20840;-55
2024/02/19 10:02:57;;;;;;;14.87;7.70;;;12.70;99.90;;;;;;5053899;28;20441;-55
2024/02/19 10:05:23;;;;;;;13.33;7.90;;;12.80;99.90;;;;;;5053643;28;20449;-55
2024/02/19 10:07:53;;;;;;;16.90;9.20;;;12.80;99.90;;;;;;5053686;28;20457;-55
2024/02/19 10:10:22;;;;;;;24.23;8.80;;;12.80;99.90;;;;;;5053259;28;20462;-55
2024/02/19 10:12:49;;;;;;;23.27;8.87;;;12.80;99.90;;;;;;5053440;28;20456;-55
2024/02/19 10:15:16;;;;;;;17.43;8.70;;;12.80;99.90;;;;;;5053710;28;20438;-55
2024/02/19 10:17:42;;;;;;;19.60;9.33;;;12.80;99.90;;;;;;5053386;28;20441;-55
2024/02/19 10:20:11;;;;;;;22.10;8.57;;;12.80;99.90;;;;;;5053485;28;20465;-55
2024/02/19 10:22:38;;;;;;;14.47;8.63;;;12.80;99.90;;;;;;5053059;28;20970;-55
2024/02/19 10:25:07;;;;;;;17.17;8.90;;;12.80;99.90;;;;;;5053148;28;20453;-55
2024/02/19 10:27:36;;;;;;;18.80;9.87;;;12.80;99.90;;;;;;5052577;28;20544;-55
2024/02/19 10:30:04;;;;;;;18.47;9.00;;;12.80;99.90;;;;;;5053131;28;20461;-55
2024/02/19 10:32:31;;;;;;;21.30;9.27;;;12.80;99.90;;;;;;5053138;28;20534;-55
2024/02/19 10:34:58;;;;;;;18.50;9.73;;;12.80;99.90;;;;;;5053306;28;20441;-55
2024/02/19 10:37:25;;;;;;;20.70;10.20;;;12.80;99.90;;;;;;5053541;28;20445;-55
2024/02/19 10:39:51;;;;;;;17.60;10.13;;;12.80;99.90;;;;;;5052917;28;20497;-55
2024/02/19 10:42:20;;;;;;;14.40;9.73;;;12.80;99.90;;;;;;5053088;28;20450;-55
2024/02/19 10:44:49;;;;;;;17.67;11.50;;;12.80;99.90;;;;;;5053248;28;20458;-55
2024/02/19 10:47:17;;;;;;;15.30;10.27;;;12.90;99.90;;;;;;5053345;28;20442;-55
2024/02/19 10:49:56;;;;;;;22.00;11.90;;;12.90;99.90;;;;;;5053356;28;20457;-55
2024/02/19 10:52:25;;;;;;;18.77;11.67;;;12.90;99.90;;;;;;5052745;28;20906;-55
2024/02/19 10:54:55;;;;;;;24.63;11.67;;;13.00;99.90;;;;;;5052837;28;20460;-55
2024/02/19 10:57:21;;;;;;;22.33;10.63;;;13.00;99.90;;;;;;5053393;28;20441;-55
2024/02/19 11:00:05;;;;;;;19.97;10.70;;;13.20;99.90;;;;;;5053434;28;20461;-55
2024/02/19 11:02:32;;;;;;;21.20;12.67;;;13.30;99.90;;;;;;5053249;28;20496;-55
2024/02/19 11:05:00;;;;;;;23.10;10.70;;;13.50;99.90;;;;;;5052844;28;20488;-55
2024/02/19 11:07:32;;;;;;;28.17;13.07;;;13.60;99.90;;;;;;5054288;28;20524;-55
2024/02/19 11:09:59;;;;;;;16.63;11.90;;;13.60;99.90;;;;;;5054406;28;20473;-55
2024/02/19 11:12:27;;;;;;;15.43;10.87;;;13.60;99.90;;;;;;5053539;28;20483;-55
2024/02/19 11:14:55;;;;;;;18.57;12.37;;;13.50;99.90;;;;;;5053338;28;20461;-55
2024/02/19 11:17:23;;;;;;;15.73;11.43;;;13.50;99.90;;;;;;5053867;28;20437;-55
2024/02/19 11:19:52;;;;;;;25.97;11.37;;;13.50;99.90;;;;;;5053583;28;20465;-55
2024/02/19 11:22:24;;;;;;;17.00;9.87;;;13.50;99.90;;;;;;5053990;28;20450;-55
2024/02/19 11:24:51;;;;;;;14.07;10.30;;;13.60;99.90;;;;;;5059320;28;20428;-55
2024/02/19 11:27:18;;;;;;;18.37;11.03;;;13.70;99.90;;;;;;5074708;28;20455;-55
2024/02/19 11:29:45;;;;;;;17.23;10.57;;;13.70;99.90;;;;;;5074628;28;20464;-54
2024/02/19 11:32:17;;;;;;;21.20;10.23;;;13.60;99.90;;;;;;5072435;28;21001;-55
2024/02/19 11:34:44;;;;;;;21.23;11.47;;;13.60;99.90;;;;;;5063029;28;20425;-54
2024/02/19 11:37:12;;;;;;;16.43;10.53;;;13.70;99.90;;;;;;5069607;28;20433;-55
2024/02/19 11:39:39;;;;;;;20.73;9.50;;;13.60;99.90;;;;;;5055414;28;20473;-55
2024/02/19 11:42:09;;;;;;;17.07;10.60;;;13.50;99.90;;;;;;5056371;28;20446;-55
2024/02/19 11:44:37;;;;;;;15.70;10.00;;;13.40;99.90;;;;;;5056469;28;20892;-56
2024/02/19 11:47:04;;;;;;;16.90;9.73;;;13.20;99.90;;;;;;5056269;28;20438;-56
2024/02/19 11:49:32;;;;;;;18.00;9.43;;;13.10;99.90;;;;;;5056021;28;20462;-56
2024/02/19 11:52:00;;;;;;;19.57;10.03;;;12.90;99.90;;;;;;5055818;28;20485;-57
2024/02/19 11:54:27;;;;;;;22.20;10.47;;;12.70;99.90;;;;;;5055647;28;20824;-56
2024/02/19 11:56:55;;;;;;;17.20;9.07;;;12.60;99.90;;;;;;5055871;28;20442;-56
2024/02/19 11:59:22;;;;;;;20.17;8.93;;;12.50;99.90;;;;;;5055812;28;20476;-56
2024/02/19 12:01:55;;;;;;;20.60;10.40;;;12.50;99.90;;;;;;5055711;28;20452;-56
2024/02/19 12:04:22;;;;;;;15.87;8.80;;;12.60;99.90;;;;;;5055821;28;20472;-56
2024/02/19 12:06:51;;;;;;;23.43;10.07;;;12.60;99.90;;;;;;5055360;28;20966;-56
2024/02/19 12:09:18;;;;;;;19.13;9.10;;;12.60;99.90;;;;;;5055347;28;20466;-56
2024/02/19 12:11:47;;;;;;;16.93;9.60;;;12.70;99.90;;;;;;5055547;28;20481;-55
2024/02/19 12:14:17;;;;;;;14.63;8.70;;;12.80;99.90;;;;;;5055644;28;20449;-56
2024/02/19 12:16:44;;;;;;;12.80;8.33;;;12.90;99.90;;;;;;5055555;28;20456;-56
2024/02/19 12:19:10;;;;;;;17.10;9.23;;;13.10;99.90;;;;;;5056058;28;20842;-55
2024/02/19 12:21:37;;;;;;;17.73;9.70;;;13.10;99.90;;;;;;5055506;28;20446;-56
2024/02/19 12:24:06;;;;;;;16.23;7.10;;;13.30;99.90;;;;;;5055052;28;20449;-55
2024/02/19 12:26:34;;;;;;;16.60;7.87;;;13.30;99.90;;;;;;5055330;28;20442;-55
2024/02/19 12:29:01;;;;;;;14.33;8.83;;;13.30;99.90;;;;;;5055064;28;20496;-55
2024/02/19 12:31:27;;;;;;;11.30;7.20;;;13.40;99.90;;;;;;5054814;28;20481;-55
2024/02/19 12:33:54;;;;;;;12.03;5.87;;;13.30;99.90;;;;;;5054980;28;20449;-55
2024/02/19 12:36:21;;;;;;;14.13;6.77;;;13.20;99.90;;;;;;5054803;28;20448;-55